Time;durP1;ratioP1;P1;durP2;ratioP2;P2;SDS_P1;SDS_P2;PMS_P1;PMS_P2;Temp;Humidity;BMP_temperature;BMP_pressure;BME280_temperature;BME280_humidity;BME280_pressure;Samples;Min_cycle;Max_cycle;Signal;HPM_P1;HPM_P2
2022/03/03 00:01:53;;;;;;;14.25;12.77;;;;;;;-1.73;98.63;96049.53;5031537;28;24526;-75
2022/03/03 00:04:20;;;;;;;15.77;12.53;;;;;;;-1.75;98.67;96041.94;5031342;28;24427;-75
2022/03/03 00:06:47;;;;;;;20.40;13.60;;;;;;;-1.74;98.33;96048.72;5031185;28;24510;-75
2022/03/03 00:09:13;;;;;;;20.35;14.73;;;;;;;-1.71;96.87;96042.72;5031362;28;24423;-75
2022/03/03 00:11:41;;;;;;;19.88;15.18;;;;;;;-1.79;94.91;96035.19;5031372;28;25201;-75
2022/03/03 00:14:08;;;;;;;19.08;14.80;;;;;;;-2.01;96.08;96038.81;5031142;28;24462;-75
2022/03/03 00:16:35;;;;;;;16.75;13.85;;;;;;;-2.06;96.54;96041.41;5031201;28;24435;-74
2022/03/03 00:19:01;;;;;;;20.00;14.53;;;;;;;-2.09;97.21;96038.88;5030882;28;24786;-74
2022/03/03 00:21:28;;;;;;;17.98;14.05;;;;;;;-2.15;97.68;96033.00;5030986;28;24790;-75
2022/03/03 00:23:54;;;;;;;18.05;13.65;;;;;;;-2.29;98.50;96034.00;5030982;28;25123;-75
2022/03/03 00:26:21;;;;;;;19.35;14.40;;;;;;;-2.54;100.00;96032.50;5031083;28;24423;-76
2022/03/03 00:28:49;;;;;;;16.50;13.80;;;;;;;-2.56;100.00;96032.53;5031107;28;24427;-76
2022/03/03 00:31:15;;;;;;;23.10;14.75;;;;;;;-2.56;100.00;96030.00;5031168;28;24420;-74
2022/03/03 00:33:42;;;;;;;17.80;13.90;;;;;;;-2.40;100.00;96040.84;5030687;28;24420;-74
2022/03/03 00:36:08;;;;;;;15.65;14.05;;;;;;;-2.29;100.00;96033.16;5031047;28;24474;-75
2022/03/03 00:38:36;;;;;;;18.52;15.10;;;;;;;-2.22;99.10;96040.69;5030705;28;24423;-74
2022/03/03 00:41:03;;;;;;;19.35;15.20;;;;;;;-2.40;98.16;96032.41;5031089;28;24450;-76
2022/03/03 00:43:29;;;;;;;23.50;15.82;;;;;;;-2.44;99.22;96032.44;5031018;28;24785;-75
2022/03/03 00:45:57;;;;;;;17.45;15.23;;;;;;;-2.40;99.43;96035.78;5030967;28;24812;-76
2022/03/03 00:48:24;;;;;;;17.10;14.68;;;;;;;-2.37;99.02;96038.31;5030275;28;25014;-76
2022/03/03 00:50:50;;;;;;;20.65;15.95;;;;;;;-2.34;98.87;96039.94;5030916;28;24496;-76
2022/03/03 00:53:16;;;;;;;21.35;14.02;;;;;;;-2.35;99.84;96036.56;5030678;28;24431;-75
2022/03/03 00:55:43;;;;;;;16.80;14.77;;;;;;;-2.24;97.44;96034.78;5030600;28;24422;-75
2022/03/03 00:58:10;;;;;;;21.35;16.02;;;;;;;-2.18;97.73;96035.59;5029916;28;24431;-76
2022/03/03 01:00:36;;;;;;;18.65;15.52;;;;;;;-2.22;98.64;96035.63;5030926;28;24447;-76
2022/03/03 01:03:04;;;;;;;16.42;14.82;;;;;;;-2.27;99.97;96029.72;5030695;28;24482;-76
2022/03/03 01:05:31;;;;;;;18.75;16.02;;;;;;;-2.17;98.79;96035.59;5030788;28;24428;-75
2022/03/03 01:07:57;;;;;;;20.43;15.50;;;;;;;-2.20;99.19;96030.53;5030510;28;24431;-75
2022/03/03 01:10:24;;;;;;;21.63;15.18;;;;;;;-2.26;99.45;96039.06;5030778;28;24446;-76
2022/03/03 01:12:50;;;;;;;22.17;15.50;;;;;;;-2.22;99.40;96034.78;5030348;28;24570;-76
2022/03/03 01:15:17;;;;;;;19.88;15.32;;;;;;;-2.24;99.71;96036.47;5030651;28;24428;-76
2022/03/03 01:17:43;;;;;;;19.43;15.97;;;;;;;-2.10;93.48;96029.59;5030549;28;24431;-76
2022/03/03 01:20:12;;;;;;;22.85;16.20;;;;;;;-2.47;97.07;96024.00;5030518;28;24421;-76
2022/03/03 01:22:38;;;;;;;30.70;19.17;;;;;;;-2.56;98.41;96029.13;5030322;28;24447;-76
2022/03/03 01:25:06;;;;;;;25.23;20.08;;;;;;;-2.47;98.15;96024.00;5030531;28;24423;-75
2022/03/03 01:27:32;;;;;;;29.85;21.55;;;;;;;-2.72;99.87;96026.72;5030506;28;24419;-76
2022/03/03 01:30:01;;;;;;;31.83;22.25;;;;;;;-2.76;100.00;96022.50;5030511;28;24468;-75
2022/03/03 01:32:27;;;;;;;27.50;21.23;;;;;;;-2.78;100.00;96021.69;5030257;28;24928;-75
2022/03/03 01:34:54;;;;;;;25.95;20.83;;;;;;;-2.72;100.00;96019.09;5030567;28;24432;-75
2022/03/03 01:37:22;;;;;;;26.88;19.92;;;;;;;-2.83;99.19;96028.47;5030574;28;24428;-75
2022/03/03 01:39:48;;;;;;;25.05;20.15;;;;;;;-2.99;100.00;96021.84;5030072;28;24424;-75
2022/03/03 01:42:15;;;;;;;25.55;19.33;;;;;;;-3.00;100.00;96021.00;5030632;28;24451;-76
2022/03/03 01:44:43;;;;;;;22.77;18.88;;;;;;;-2.85;100.00;96017.53;5029716;28;24470;-75
2022/03/03 01:47:17;;;;;;;24.20;18.83;;;;;;;-2.77;100.00;96017.47;5030267;28;25058;-76
2022/03/03 01:49:44;;;;;;;26.23;19.17;;;;;;;-2.76;99.54;96014.91;5030165;28;24443;-75
2022/03/03 01:52:11;;;;;;;27.55;18.45;;;;;;;-2.73;100.00;95998.84;5030223;28;24423;-75
2022/03/03 01:54:39;;;;;;;24.80;18.02;;;;;;;-2.68;99.58;95994.56;5029951;28;24948;-76
2022/03/03 01:57:07;;;;;;;22.67;17.15;;;;;;;-2.62;99.96;95988.63;5029943;28;24426;-75
2022/03/03 01:59:33;;;;;;;21.23;15.05;;;;;;;-2.77;99.25;95984.50;5030153;28;24482;-76
2022/03/03 02:02:02;;;;;;;21.75;15.15;;;;;;;-3.00;100.00;95982.97;5030208;28;24439;-75
2022/03/03 02:04:29;;;;;;;17.17;14.53;;;;;;;-2.93;100.00;95988.81;5030247;28;25011;-76
2022/03/03 02:06:55;;;;;;;18.55;15.05;;;;;;;-2.86;100.00;95982.03;5029952;28;24435;-75
2022/03/03 02:09:21;;;;;;;21.40;14.63;;;;;;;-3.01;100.00;95982.97;5030368;28;24423;-75
2022/03/03 02:11:50;;;;;;;16.83;14.15;;;;;;;-2.91;100.00;95977.00;5033429;28;24446;-75
2022/03/03 02:14:17;;;;;;;17.13;13.80;;;;;;;-2.84;100.00;95985.41;5033431;28;24518;-75
2022/03/03 02:16:43;;;;;;;23.45;15.00;;;;;;;-2.83;100.00;95984.56;5033259;28;24878;-75
2022/03/03 02:19:17;;;;;;;19.90;15.23;;;;;;;-2.81;100.00;95972.72;5033263;28;24422;-76
2022/03/03 02:21:46;;;;;;;23.98;15.90;;;;;;;-2.87;100.00;95975.28;5033664;28;24523;-75
2022/03/03 02:24:12;;;;;;;20.00;14.75;;;;;;;-2.87;100.00;95976.13;5033268;28;24435;-76
2022/03/03 02:26:39;;;;;;;21.58;15.55;;;;;;;-2.97;100.00;95980.41;5033407;28;24424;-76
2022/03/03 02:29:06;;;;;;;19.83;15.05;;;;;;;-2.99;100.00;95982.13;5033241;28;24797;-75
2022/03/03 02:31:33;;;;;;;22.73;16.08;;;;;;;-2.93;100.00;95978.69;5033258;28;24426;-75
2022/03/03 02:33:59;;;;;;;21.92;14.27;;;;;;;-2.93;100.00;95982.09;5033396;28;24435;-75
2022/03/03 02:36:27;;;;;;;19.48;14.45;;;;;;;-2.83;98.31;95976.94;5033342;28;24419;-75
2022/03/03 02:38:58;;;;;;;17.05;14.00;;;;;;;-2.94;97.35;95971.94;5032818;28;24511;-75
2022/03/03 02:41:26;;;;;;;16.10;13.13;;;;;;;-2.99;97.43;95978.75;5033246;28;24489;-75
2022/03/03 02:43:53;;;;;;;20.60;13.95;;;;;;;-3.20;95.27;95982.25;5032997;28;24826;-76
2022/03/03 02:46:20;;;;;;;17.23;13.43;;;;;;;-3.32;98.51;95982.34;5033150;28;24420;-75
2022/03/03 02:48:46;;;;;;;16.45;14.10;;;;;;;-3.18;100.00;95978.03;5032796;28;24423;-75
2022/03/03 02:51:13;;;;;;;17.70;14.33;;;;;;;-3.28;99.21;95977.22;5033048;28;24472;-75
2022/03/03 02:53:40;;;;;;;22.20;16.67;;;;;;;-3.33;100.00;95970.53;5033033;28;24423;-75
2022/03/03 02:56:08;;;;;;;24.25;19.15;;;;;;;-3.29;100.00;95972.19;5032892;28;24427;-75
2022/03/03 02:58:34;;;;;;;26.13;21.97;;;;;;;-3.43;100.00;95969.72;5032657;28;24427;-75
2022/03/03 03:01:02;;;;;;;30.92;20.95;;;;;;;-3.68;100.00;95974.88;5032688;28;24559;-75
2022/03/03 03:03:29;;;;;;;33.07;21.70;;;;;;;-3.64;100.00;95968.13;5032652;28;24939;-76
2022/03/03 03:05:55;;;;;;;22.60;18.75;;;;;;;-3.58;100.00;95968.09;5032552;28;24943;-75
2022/03/03 03:08:22;;;;;;;25.17;18.30;;;;;;;-3.46;100.00;95967.19;5032628;28;24423;-75
2022/03/03 03:10:48;;;;;;;25.40;17.33;;;;;;;-3.40;100.00;95964.66;5032918;28;24442;-75
2022/03/03 03:13:17;;;;;;;21.67;17.02;;;;;;;-3.31;100.00;95963.75;5032456;28;24435;-75
2022/03/03 03:15:44;;;;;;;24.08;16.67;;;;;;;-3.27;100.00;95961.19;5032464;28;24422;-76
2022/03/03 03:18:12;;;;;;;16.97;14.03;;;;;;;-3.25;100.00;95956.97;5032497;28;24524;-75
2022/03/03 03:20:39;;;;;;;16.55;14.75;;;;;;;-3.20;100.00;95952.69;5032033;28;24426;-75
2022/03/03 03:23:06;;;;;;;22.02;16.80;;;;;;;-3.20;100.00;95955.22;5031640;28;24444;-76
2022/03/03 03:25:33;;;;;;;26.40;16.97;;;;;;;-3.25;100.00;95949.34;5032490;28;24416;-76
2022/03/03 03:27:59;;;;;;;22.30;17.02;;;;;;;-3.33;100.00;95948.56;5032290;28;24432;-75
2022/03/03 03:30:27;;;;;;;23.42;17.58;;;;;;;-3.36;100.00;95946.06;5032398;28;24427;-76
2022/03/03 03:32:54;;;;;;;18.20;16.02;;;;;;;-3.41;100.00;95945.25;5032084;28;24491;-75
2022/03/03 03:35:20;;;;;;;21.90;16.67;;;;;;;-3.60;100.00;95946.16;5032126;28;24439;-76
2022/03/03 03:37:47;;;;;;;21.60;16.58;;;;;;;-3.61;100.00;95944.50;5032109;28;24816;-75
2022/03/03 03:40:14;;;;;;;23.52;16.38;;;;;;;-3.62;100.00;95948.72;5032143;28;24505;-75
2022/03/03 03:42:40;;;;;;;20.42;16.48;;;;;;;-3.56;100.00;95950.38;5031856;28;24456;-76
2022/03/03 03:45:08;;;;;;;18.58;14.57;;;;;;;-3.56;100.00;95947.84;5031813;28;24426;-76
2022/03/03 03:47:36;;;;;;;18.67;14.90;;;;;;;-3.57;100.00;95948.69;5031637;28;24478;-75
2022/03/03 03:50:04;;;;;;;21.15;15.15;;;;;;;-3.55;100.00;95950.38;5031920;28;24781;-75
2022/03/03 03:52:31;;;;;;;18.80;14.93;;;;;;;-3.62;99.34;95942.81;5031973;28;24428;-75
2022/03/03 03:54:57;;;;;;;18.08;15.38;;;;;;;-3.92;100.00;95939.56;5031552;28;24948;-76
2022/03/03 03:57:24;;;;;;;20.67;16.13;;;;;;;-3.86;100.00;95933.63;5031465;28;24416;-76
2022/03/03 03:59:50;;;;;;;22.27;15.00;;;;;;;-3.80;100.00;95920.97;5031467;28;24832;-76
2022/03/03 04:02:17;;;;;;;18.00;14.13;;;;;;;-3.80;100.00;95919.28;5031645;28;24444;-76
2022/03/03 04:04:45;;;;;;;19.38;16.23;;;;;;;-3.81;100.00;95924.34;5031544;28;24982;-76
2022/03/03 04:07:11;;;;;;;22.17;16.35;;;;;;;-3.67;100.00;95931.03;5031666;28;24442;-76
2022/03/03 04:09:38;;;;;;;19.92;15.77;;;;;;;-3.63;100.00;95929.34;5031202;28;24427;-75
2022/03/03 04:12:05;;;;;;;20.73;15.47;;;;;;;-3.57;100.00;95923.38;5031656;28;24512;-75
2022/03/03 04:14:31;;;;;;;20.42;16.25;;;;;;;-3.66;100.00;95922.59;5031140;28;24411;-76
2022/03/03 04:16:58;;;;;;;20.80;16.92;;;;;;;-3.79;100.00;95923.47;5031294;28;24427;-75
2022/03/03 04:19:24;;;;;;;19.63;15.48;;;;;;;-3.74;100.00;95928.53;5031454;28;24789;-75
2022/03/03 04:21:52;;;;;;;23.17;15.30;;;;;;;-3.69;100.00;95935.25;5031269;28;24478;-75
2022/03/03 04:24:19;;;;;;;20.58;14.75;;;;;;;-3.62;100.00;95928.47;5030924;28;24435;-75
2022/03/03 04:26:45;;;;;;;26.50;16.35;;;;;;;-3.52;100.00;95942.78;5031126;28;24474;-77
2022/03/03 04:29:12;;;;;;;23.27;17.15;;;;;;;-3.52;100.00;95940.25;5031110;28;24515;-75
2022/03/03 04:31:38;;;;;;;24.75;17.45;;;;;;;-3.47;100.00;95935.97;5031293;28;24427;-76
2022/03/03 04:34:05;;;;;;;23.73;16.57;;;;;;;-3.51;100.00;95936.84;5030901;28;24562;-75
2022/03/03 04:36:31;;;;;;;25.67;17.42;;;;;;;-3.44;100.00;95938.50;5031018;28;24482;-75
2022/03/03 04:38:59;;;;;;;19.65;16.52;;;;;;;-3.42;100.00;95935.94;5030777;28;24420;-76
2022/03/03 04:41:26;;;;;;;20.98;15.43;;;;;;;-3.45;100.00;95941.88;5031190;28;24415;-76
2022/03/03 04:43:52;;;;;;;18.13;15.27;;;;;;;-3.43;100.00;95936.81;5030824;28;24444;-76
2022/03/03 04:46:19;;;;;;;21.98;16.10;;;;;;;-3.52;99.16;95929.25;5030942;28;24423;-76
2022/03/03 04:48:45;;;;;;;21.67;16.73;;;;;;;-3.51;98.45;95926.72;5030790;28;24426;-75
2022/03/03 04:51:12;;;;;;;23.10;16.27;;;;;;;-3.73;97.05;95923.47;5031041;28;24431;-75
2022/03/03 04:53:38;;;;;;;20.65;15.57;;;;;;;-4.01;98.99;95930.31;5030600;28;25017;-76
2022/03/03 04:56:06;;;;;;;24.35;16.90;;;;;;;-4.05;100.00;95932.88;5030648;28;24427;-75
2022/03/03 04:58:33;;;;;;;25.45;17.00;;;;;;;-3.97;100.00;95928.63;5030573;28;24420;-75
2022/03/03 05:00:59;;;;;;;22.40;16.67;;;;;;;-3.96;100.00;95913.44;5030690;28;24424;-76
2022/03/03 05:03:26;;;;;;;23.00;16.98;;;;;;;-3.98;100.00;95915.13;5030672;28;24494;-75
2022/03/03 05:05:52;;;;;;;19.25;15.68;;;;;;;-3.94;100.00;95914.25;5030889;28;24454;-76
2022/03/03 05:08:19;;;;;;;19.13;15.65;;;;;;;-3.98;100.00;95924.41;5030609;28;24412;-76
2022/03/03 05:10:45;;;;;;;19.42;15.70;;;;;;;-3.96;100.00;95921.03;5030372;28;24430;-76
2022/03/03 05:13:14;;;;;;;17.83;15.00;;;;;;;-3.92;100.00;95910.06;5030319;28;24821;-75
2022/03/03 05:15:41;;;;;;;18.27;14.90;;;;;;;-3.87;99.88;95909.19;5030670;28;24493;-75
2022/03/03 05:18:07;;;;;;;17.45;14.18;;;;;;;-3.79;97.15;95910.00;5029713;28;24419;-76
2022/03/03 05:20:34;;;;;;;21.57;14.00;;;;;;;-3.92;95.98;95899.09;5017116;28;24449;-76
2022/03/03 05:23:00;;;;;;;16.92;14.57;;;;;;;-4.10;98.57;95901.69;4999834;28;24468;-76
2022/03/03 05:25:27;;;;;;;16.45;13.88;;;;;;;-4.35;100.00;95900.94;4999872;28;24436;-75
2022/03/03 05:27:53;;;;;;;17.00;14.90;;;;;;;-4.34;100.00;95897.56;5010767;28;24428;-76
2022/03/03 05:30:21;;;;;;;17.00;14.13;;;;;;;-4.32;100.00;95890.81;5010544;28;25245;-76
2022/03/03 05:32:49;;;;;;;19.08;14.95;;;;;;;-4.38;100.00;95889.13;4991676;28;24775;-76
2022/03/03 05:35:16;;;;;;;21.23;15.15;;;;;;;-4.25;100.00;95889.94;5001284;28;24435;-76
2022/03/03 05:37:42;;;;;;;17.63;15.20;;;;;;;-4.20;100.00;95896.66;4997992;28;24436;-75
2022/03/03 05:40:10;;;;;;;19.88;16.40;;;;;;;-4.28;100.00;95888.25;5004626;28;24969;-76
2022/03/03 05:42:38;;;;;;;19.25;15.45;;;;;;;-4.29;100.00;95890.81;4999190;28;24857;-76
2022/03/03 05:45:05;;;;;;;20.38;16.15;;;;;;;-4.27;100.00;95884.88;5001640;28;24432;-76
2022/03/03 05:47:34;;;;;;;17.60;15.80;;;;;;;-4.26;100.00;95886.59;5002454;28;24507;-76
2022/03/03 05:50:01;;;;;;;18.65;14.68;;;;;;;-4.16;100.00;95887.38;5002015;28;24510;-76
2022/03/03 05:52:28;;;;;;;20.88;16.90;;;;;;;-4.09;100.00;95873.03;5004152;28;24441;-76
2022/03/03 05:54:55;;;;;;;21.05;15.70;;;;;;;-4.10;100.00;95881.47;5033566;23;24563;-73
2022/03/03 05:57:27;;;;;;;17.70;15.38;;;;;;;-4.15;99.81;95882.31;5026477;28;24520;-72
2022/03/03 05:59:57;;;;;;;21.98;15.80;;;;;;;-4.21;100.00;95887.41;5035472;28;25032;-73
2022/03/03 06:02:24;;;;;;;21.00;15.90;;;;;;;-4.10;100.00;95881.47;5034953;28;24448;-72
2022/03/03 06:04:52;;;;;;;18.80;15.07;;;;;;;-4.06;100.00;95889.03;5035323;28;24821;-73
2022/03/03 06:07:25;;;;;;;21.85;16.33;;;;;;;-4.15;100.00;95889.06;5034810;28;24443;-73
2022/03/03 06:09:53;;;;;;;21.85;14.93;;;;;;;-4.13;100.00;95889.91;5034910;28;24471;-73
2022/03/03 06:12:26;;;;;;;20.00;14.70;;;;;;;-4.15;100.00;95884.84;5034875;28;24472;-73
2022/03/03 06:14:55;;;;;;;18.23;14.60;;;;;;;-4.19;100.00;95890.78;5034303;28;24866;-73
2022/03/03 06:17:23;;;;;;;18.33;14.35;;;;;;;-4.23;100.00;95890.78;5034641;28;24419;-72
2022/03/03 06:19:52;;;;;;;16.08;13.80;;;;;;;-4.27;100.00;95889.94;5035077;28;24422;-73
2022/03/03 06:22:20;;;;;;;21.20;15.13;;;;;;;-4.18;100.00;95889.91;5034928;28;24423;-73
2022/03/03 06:24:48;;;;;;;21.20;14.53;;;;;;;-4.15;100.00;95889.91;5034690;28;24511;-73
2022/03/03 06:27:15;;;;;;;19.65;14.00;;;;;;;-4.07;100.00;95889.03;5034117;28;24850;-71
2022/03/03 06:29:41;;;;;;;20.95;15.48;;;;;;;-3.94;100.00;95893.19;5033171;28;24423;-71
2022/03/03 06:32:08;;;;;;;19.20;15.67;;;;;;;-3.77;100.00;95888.06;5033637;28;24451;-71
2022/03/03 06:34:35;;;;;;;20.08;16.10;;;;;;;-3.65;100.00;95893.88;5033489;28;24427;-73
2022/03/03 06:37:03;;;;;;;21.48;15.07;;;;;;;-3.50;100.00;95887.88;5034603;28;24956;-72
2022/03/03 06:39:30;;;;;;;25.40;16.30;;;;;;;-3.29;99.56;95884.38;5033844;28;24427;-72
2022/03/03 06:41:56;;;;;;;22.17;15.32;;;;;;;-3.12;98.57;95881.69;5034158;28;24809;-72
2022/03/03 06:44:23;;;;;;;19.57;15.00;;;;;;;-2.98;97.51;95886.66;5033995;28;24552;-72
2022/03/03 06:46:49;;;;;;;16.85;14.38;;;;;;;-3.06;97.68;95879.13;5033758;28;24423;-73
2022/03/03 06:49:16;;;;;;;19.45;15.65;;;;;;;-3.08;98.41;95878.28;5033994;28;24436;-73
2022/03/03 06:51:47;;;;;;;18.77;14.90;;;;;;;-2.97;98.30;95878.22;5034138;28;24419;-73
2022/03/03 06:54:17;;;;;;;22.27;16.08;;;;;;;-2.92;95.79;95877.34;5034339;28;24435;-72
2022/03/03 06:56:48;;;;;;;22.75;16.70;;;;;;;-3.20;99.94;95875.88;5032804;28;24432;-73
2022/03/03 06:59:16;;;;;;;21.30;16.00;;;;;;;-3.23;100.00;95876.72;5033801;28;24428;-73
2022/03/03 07:01:43;;;;;;;24.83;16.58;;;;;;;-3.23;100.00;95879.25;5034129;28;24428;-73
2022/03/03 07:04:13;;;;;;;20.77;15.45;;;;;;;-3.07;100.00;95869.03;5033927;28;25024;-73
2022/03/03 07:06:40;;;;;;;17.13;15.32;;;;;;;-2.95;100.00;95859.59;5033734;28;24436;-73
2022/03/03 07:09:08;;;;;;;18.70;15.38;;;;;;;-2.71;100.00;95853.50;5034005;28;24427;-74
2022/03/03 07:11:38;;;;;;;19.25;16.23;;;;;;;-2.57;100.00;95843.19;5032942;28;25107;-73
2022/03/03 07:14:05;;;;;;;22.83;15.90;;;;;;;-2.42;100.00;95852.31;5040111;28;24426;-73
2022/03/03 07:16:38;;;;;;;25.35;15.63;;;;;;;-2.06;100.00;95843.44;5053283;28;24436;-73
2022/03/03 07:19:08;;;;;;;20.67;16.42;;;;;;;-2.01;97.54;95838.31;5052892;28;24423;-73
2022/03/03 07:21:47;;;;;;;19.42;15.73;;;;;;;-2.07;99.39;95836.69;5052852;28;24427;-74
2022/03/03 07:24:21;;;;;;;22.33;15.77;;;;;;;-2.23;98.93;95843.63;5052561;28;24461;-74
2022/03/03 07:26:51;;;;;;;18.55;15.48;;;;;;;-2.27;100.00;95844.53;5053019;28;24431;-74
2022/03/03 07:29:20;;;;;;;23.00;15.65;;;;;;;-2.23;100.00;95840.25;5052767;28;24430;-73
2022/03/03 07:31:52;;;;;;;18.63;15.43;;;;;;;-2.20;100.00;95846.16;5052778;28;24835;-73
2022/03/03 07:34:22;;;;;;;22.48;15.02;;;;;;;-1.86;100.00;95834.72;5054123;28;24423;-73
2022/03/03 07:36:49;;;;;;;22.70;15.80;;;;;;;-1.73;98.56;95834.56;5053640;28;24432;-73
2022/03/03 07:39:18;;;;;;;18.08;14.77;;;;;;;-1.60;97.87;95829.28;5053385;28;24427;-73
2022/03/03 07:41:46;;;;;;;20.00;16.40;;;;;;;-1.40;95.98;95834.09;5053713;28;24424;-73
2022/03/03 07:44:15;;;;;;;21.85;16.48;;;;;;;-1.47;96.72;95834.19;5053762;28;24442;-73
2022/03/03 07:46:41;;;;;;;21.45;15.73;;;;;;;-1.27;94.86;95841.47;5053389;28;24423;-74
2022/03/03 07:49:09;;;;;;;29.13;16.63;;;;;;;-1.43;94.77;95831.59;5053132;28;24434;-70
2022/03/03 07:51:37;;;;;;;17.88;14.90;;;;;;;-1.04;96.47;95828.44;5052264;28;24435;-75
2022/03/03 07:54:03;;;;;;;21.30;15.82;;;;;;;-0.73;91.50;95830.44;5052314;28;24973;-75
2022/03/03 07:56:44;;;;;;;20.73;16.00;;;;;;;-0.38;93.80;95834.88;5052893;28;25066;-76
2022/03/03 07:59:12;;;;;;;22.08;15.80;;;;;;;0.11;91.24;95836.47;5053192;28;24501;-77
2022/03/03 08:01:44;;;;;;;19.80;16.17;;;;;;;0.07;84.37;95829.72;5056569;28;24427;-76
2022/03/03 08:04:15;;;;;;;22.00;16.65;;;;;;;0.24;88.48;95829.38;5054823;28;24446;-76
2022/03/03 08:06:44;;;;;;;18.70;15.65;;;;;;;0.15;83.52;95830.44;5054014;28;24419;-75
2022/03/03 08:09:11;;;;;;;20.90;15.88;;;;;;;0.16;84.49;95842.28;5052284;28;24947;-76
2022/03/03 08:11:40;;;;;;;21.55;16.20;;;;;;;0.03;84.63;95837.47;5053495;28;24862;-76
2022/03/03 08:14:07;;;;;;;19.05;15.90;;;;;;;0.10;85.10;95834.75;5052515;28;24473;-75
2022/03/03 08:16:35;;;;;;;19.13;16.70;;;;;;;0.02;85.89;95835.78;5052419;28;24525;-75
2022/03/03 08:19:04;;;;;;;21.17;15.90;;;;;;;0.05;84.67;95823.84;5053707;28;24446;-75
2022/03/03 08:21:32;;;;;;;19.55;15.88;;;;;;;0.32;84.88;95834.31;5053284;28;24426;-75
2022/03/03 08:24:00;;;;;;;25.27;18.83;;;;;;;0.27;84.27;95823.41;5053451;28;24475;-75
2022/03/03 08:26:28;;;;;;;23.15;17.63;;;;;;;0.44;84.74;95828.94;5050870;28;24492;-75
2022/03/03 08:28:55;;;;;;;20.30;17.95;;;;;;;0.76;81.34;95818.00;5051018;28;24431;-75
2022/03/03 08:31:28;;;;;;;22.73;17.40;;;;;;;0.97;81.47;95811.56;5051438;28;24522;-74
2022/03/03 08:34:09;;;;;;;21.35;18.58;;;;;;;1.26;80.71;95817.63;5051124;28;24422;-75
2022/03/03 08:36:45;;;;;;;29.30;19.05;;;;;;;1.44;81.43;95812.88;5051394;28;24434;-75
2022/03/03 08:39:14;;;;;;;22.40;17.83;;;;;;;1.42;78.54;95813.81;5050593;28;24837;-74
2022/03/03 08:41:42;;;;;;;19.90;17.27;;;;;;;1.66;76.48;95812.31;5051208;28;24416;-75
2022/03/03 08:44:10;;;;;;;20.23;16.40;;;;;;;1.96;76.75;95817.44;5045818;28;24477;-75
2022/03/03 08:46:39;;;;;;;21.02;16.40;;;;;;;2.12;72.80;95811.88;5032833;28;24918;-75
2022/03/03 08:49:07;;;;;;;20.10;15.88;;;;;;;2.07;73.54;95813.72;5032683;28;24474;-74
2022/03/03 08:51:34;;;;;;;23.20;16.33;;;;;;;2.29;72.65;95813.09;5032273;28;24443;-75
2022/03/03 08:54:03;;;;;;;25.88;16.88;;;;;;;2.37;74.15;95812.00;5031604;28;24423;-75
2022/03/03 08:56:30;;;;;;;20.77;16.50;;;;;;;2.49;73.02;95815.91;5031724;28;24478;-75
2022/03/03 08:58:56;;;;;;;22.45;16.95;;;;;;;2.70;72.59;95811.00;5031423;28;24419;-75
2022/03/03 09:01:23;;;;;;;23.98;16.58;;;;;;;2.64;72.55;95817.97;5032749;28;24945;-76
2022/03/03 09:03:49;;;;;;;19.23;16.20;;;;;;;2.82;71.28;95816.56;5032934;28;24493;-74
2022/03/03 09:06:17;;;;;;;19.92;16.10;;;;;;;2.95;71.17;95813.63;5032225;28;24497;-75
2022/03/03 09:08:44;;;;;;;24.40;17.48;;;;;;;3.04;70.20;95813.31;5032499;28;25003;-75
2022/03/03 09:11:12;;;;;;;19.27;16.60;;;;;;;3.13;71.17;95818.13;5031834;28;24419;-75
2022/03/03 09:13:38;;;;;;;23.00;17.70;;;;;;;3.56;73.55;95811.56;5031785;28;24416;-75
2022/03/03 09:16:06;;;;;;;27.85;16.90;;;;;;;3.98;70.78;95809.22;5031388;28;24428;-76
2022/03/03 09:18:33;;;;;;;27.67;17.45;;;;;;;4.17;67.91;95809.38;5031357;28;24442;-75
2022/03/03 09:21:00;;;;;;;19.38;16.35;;;;;;;4.38;68.02;95823.13;5034432;28;24478;-74
2022/03/03 09:23:27;;;;;;;21.63;16.65;;;;;;;4.56;65.50;95819.88;5035394;28;24451;-75
2022/03/03 09:25:53;;;;;;;19.55;15.52;;;;;;;4.60;64.99;95818.84;5035084;28;24957;-74
2022/03/03 09:28:21;;;;;;;22.88;16.92;;;;;;;4.94;69.40;95812.41;5035480;28;24426;-74
2022/03/03 09:30:47;;;;;;;19.63;16.25;;;;;;;5.39;63.80;95811.41;5035253;28;24475;-74
2022/03/03 09:33:14;;;;;;;19.95;16.67;;;;;;;5.83;58.54;95811.25;5034968;28;24801;-72
2022/03/03 09:35:40;;;;;;;20.33;15.85;;;;;;;6.50;60.17;95810.03;5034195;28;24427;-73
2022/03/03 09:38:07;;;;;;;18.40;15.85;;;;;;;6.79;57.05;95806.91;5033722;28;24949;-72
2022/03/03 09:40:33;;;;;;;25.42;16.98;;;;;;;7.07;59.37;95807.34;5034815;28;24442;-73
2022/03/03 09:43:02;;;;;;;27.23;18.40;;;;;;;6.81;57.24;95795.72;5034627;28;24431;-74
2022/03/03 09:45:30;;;;;;;20.38;16.58;;;;;;;6.40;58.12;95801.03;5034289;28;24459;-74
2022/03/03 09:47:58;;;;;;;25.55;17.45;;;;;;;6.27;59.36;95811.06;5034116;28;24479;-75
2022/03/03 09:50:26;;;;;;;23.25;16.10;;;;;;;6.30;58.25;95805.75;5034463;28;24427;-75
2022/03/03 09:52:53;;;;;;;18.60;15.25;;;;;;;6.36;60.03;95812.38;5034505;28;24905;-75
2022/03/03 09:55:21;;;;;;;21.30;15.15;;;;;;;6.44;58.08;95810.28;5034919;28;24474;-75
2022/03/03 09:57:48;;;;;;;18.43;15.30;;;;;;;6.91;57.25;95809.81;5034916;28;24428;-74
2022/03/03 10:00:16;;;;;;;18.55;14.90;;;;;;;6.78;53.14;95809.56;5035237;28;24480;-74
2022/03/03 10:03:09;;;;;;;16.65;14.73;;;;;;;7.11;50.30;95801.13;5034794;28;24435;-75
2022/03/03 10:05:38;;;;;;;17.87;14.27;;;;;;;8.04;52.57;95801.56;5031233;28;24468;-75
2022/03/03 10:08:07;;;;;;;19.38;14.35;;;;;;;8.16;52.67;95805.28;5034087;28;24416;-74
2022/03/03 10:10:35;;;;;;;20.10;15.27;;;;;;;8.30;50.28;95815.66;5033937;28;24470;-75
2022/03/03 10:13:01;;;;;;;16.83;14.17;;;;;;;8.54;51.92;95798.09;5033927;28;24420;-74
2022/03/03 10:15:29;;;;;;;23.90;16.38;;;;;;;8.59;50.23;95805.56;5033947;28;24461;-73
2022/03/03 10:17:57;;;;;;;21.27;17.05;;;;;;;8.71;52.35;95797.16;5034016;28;24420;-73
2022/03/03 10:20:26;;;;;;;19.15;15.10;;;;;;;8.66;48.70;95810.31;5034088;28;24431;-73
2022/03/03 10:22:57;;;;;;;21.83;16.35;;;;;;;8.69;49.08;95805.00;5033730;28;24416;-72
2022/03/03 10:25:33;;;;;;;22.77;16.58;;;;;;;8.67;49.21;95805.97;5032914;28;24997;-74
2022/03/03 10:28:10;;;;;;;31.47;16.17;;;;;;;8.73;51.43;95790.16;5032928;28;24589;-73
2022/03/03 10:30:57;;;;;;;23.35;15.57;;;;;;;8.66;50.91;95807.72;5033203;28;24486;-73
2022/03/03 10:33:26;;;;;;;21.00;16.10;;;;;;;8.84;51.98;95803.31;5033548;28;24416;-72
2022/03/03 10:36:06;;;;;;;23.65;16.27;;;;;;;8.74;48.04;95807.31;5033144;28;24420;-72
2022/03/03 10:38:33;;;;;;;21.30;16.73;;;;;;;8.72;50.48;95809.16;5033334;28;24837;-74
2022/03/03 10:41:01;;;;;;;23.15;17.02;;;;;;;8.51;50.56;95812.91;5034373;28;24424;-75
2022/03/03 10:43:27;;;;;;;20.42;16.42;;;;;;;8.71;50.94;95810.06;5034019;28;24415;-75
2022/03/03 10:45:56;;;;;;;22.33;16.52;;;;;;;8.84;50.98;95807.66;5034339;28;24483;-74
2022/03/03 10:48:24;;;;;;;26.73;17.55;;;;;;;8.86;47.73;95804.06;5034273;28;24790;-74
2022/03/03 10:50:52;;;;;;;21.35;17.45;;;;;;;8.84;48.82;95803.31;5034856;28;24531;-74
2022/03/03 10:53:20;;;;;;;21.87;17.20;;;;;;;8.77;49.85;95809.72;5033518;28;24484;-73
2022/03/03 10:56:00;;;;;;;23.83;17.53;;;;;;;8.79;53.11;95807.91;5031186;28;24447;-74
2022/03/03 10:58:45;;;;;;;24.38;17.85;;;;;;;8.61;50.90;95804.59;5036135;28;24466;-74
2022/03/03 11:01:13;;;;;;;27.02;18.45;;;;;;;8.83;49.00;95804.25;5042522;28;20812;-74
2022/03/03 11:03:41;;;;;;;21.65;17.45;;;;;;;8.47;49.61;95810.47;5054260;28;24513;-74
2022/03/03 11:06:08;;;;;;;25.02;18.30;;;;;;;8.87;50.56;95799.75;5054277;28;24431;-74
2022/03/03 11:08:36;;;;;;;24.92;17.38;;;;;;;8.87;47.58;95799.75;5054195;28;24490;-73
2022/03/03 11:11:04;;;;;;;20.90;17.35;;;;;;;8.67;48.00;95793.06;5054491;28;24434;-73
2022/03/03 11:13:30;;;;;;;26.00;17.13;;;;;;;8.58;51.27;95796.16;5046516;28;24428;-74
2022/03/03 11:15:58;;;;;;;23.33;18.17;;;;;;;8.80;50.78;95788.91;5034735;28;24431;-74
2022/03/03 11:18:25;;;;;;;26.15;18.80;;;;;;;8.66;48.83;95783.66;5036836;28;24427;-74
2022/03/03 11:20:52;;;;;;;23.90;17.92;;;;;;;8.05;45.08;95782.63;5040553;28;24809;-74